Time;durP1;ratioP1;P1;durP2;ratioP2;P2;SDS_P1;SDS_P2;PMS_P1;PMS_P2;Temp;Humidity;BMP_temperature;BMP_pressure;BME280_temperature;BME280_humidity;BME280_pressure;Samples;Min_cycle;Max_cycle;Signal;HPM_P1;HPM_P2
2023/03/10 00:02:23;;;;;;;;;;;;;;;23.45;38.27;94391.84;5007324;28;1383;-73
2023/03/10 00:04:52;;;;;;;;;;;;;;;23.44;37.90;94388.34;5004991;28;1350;-73
2023/03/10 00:07:17;;;;;;;;;;;;;;;23.46;37.95;94396.97;4998850;28;1333;-70
2023/03/10 00:09:43;;;;;;;;;;;;;;;23.47;38.03;94387.06;5017108;28;1965;-71
2023/03/10 00:12:08;;;;;;;;;;;;;;;23.47;38.48;94387.88;5004904;28;1338;-70
2023/03/10 00:14:33;;;;;;;;;;;;;;;23.45;38.47;94395.34;5015196;28;1306;-70
2023/03/10 00:16:59;;;;;;;;;;;;;;;23.48;38.49;94402.91;5031608;28;1398;-69
2023/03/10 00:19:25;;;;;;;;;;;;;;;23.48;38.60;94404.75;5033008;28;1428;-72
2023/03/10 00:21:51;;;;;;;;;;;;;;;23.48;38.32;94400.22;5010332;28;1379;-73
2023/03/10 00:24:16;;;;;;;;;;;;;;;23.48;38.68;94399.38;5000179;28;1413;-72
2023/03/10 00:26:41;;;;;;;;;;;;;;;23.47;38.64;94403.13;4999379;28;1398;-72
2023/03/10 00:29:06;;;;;;;;;;;;;;;23.55;38.68;94408.09;5014640;28;1961;-72
2023/03/10 00:31:33;;;;;;;;;;;;;;;23.57;38.82;94396.09;5014650;28;1351;-72
2023/03/10 00:33:59;;;;;;;;;;;;;;;23.57;38.58;94398.78;4989924;28;1498;-72
2023/03/10 00:36:26;;;;;;;;;;;;;;;23.60;39.07;94394.00;4994455;28;1492;-72
2023/03/10 00:38:52;;;;;;;;;;;;;;;23.63;38.66;94396.22;5032605;28;1394;-73
2023/03/10 00:41:19;;;;;;;;;;;;;;;23.66;39.27;94395.72;5016088;28;1358;-71
2023/03/10 00:43:44;;;;;;;;;;;;;;;23.69;38.56;94392.56;5011825;28;1433;-71
2023/03/10 00:46:10;;;;;;;;;;;;;;;23.66;38.54;94391.19;4986962;28;1318;-72
2023/03/10 00:48:36;;;;;;;;;;;;;;;23.63;38.33;94383.63;5012706;28;1957;-71
2023/03/10 00:51:01;;;;;;;;;;;;;;;23.60;38.54;94391.34;5015891;28;1350;-71
2023/03/10 00:53:27;;;;;;;;;;;;;;;23.56;38.64;94386.47;5015573;28;1390;-71
2023/03/10 00:55:56;;;;;;;;;;;;;;;23.55;38.56;94387.50;5032996;28;1321;-71
2023/03/10 00:58:21;;;;;;;;;;;;;;;23.54;38.62;94377.84;5023634;28;1330;-71
2023/03/10 01:00:46;;;;;;;;;;;;;;;23.53;38.83;94381.56;5015506;28;1354;-71
2023/03/10 01:03:11;;;;;;;;;;;;;;;23.51;38.53;94378.31;5031868;28;1373;-69
2023/03/10 01:05:37;;;;;;;;;;;;;;;23.50;38.81;94382.03;5013938;28;1354;-70
2023/03/10 01:08:02;;;;;;;;;;;;;;;23.48;38.68;94386.84;5025292;28;1334;-69
2023/03/10 01:10:27;;;;;;;;;;;;;;;23.48;38.78;94381.50;5010660;28;1969;-70
2023/03/10 01:12:53;;;;;;;;;;;;;;;23.49;38.63;94382.28;4996132;28;1600;-70
2023/03/10 01:15:18;;;;;;;;;;;;;;;23.51;38.76;94393.59;5017684;28;1409;-70
2023/03/10 01:17:43;;;;;;;;;;;;;;;23.49;38.73;94407.19;5017869;28;1330;-70
2023/03/10 01:20:12;;;;;;;;;;;;;;;23.48;38.64;94394.88;5009095;28;1338;-70
2023/03/10 01:22:38;;;;;;;;;;;;;;;23.51;38.67;94391.72;5033484;28;929;-71
2023/03/10 01:25:03;;;;;;;;;;;;;;;23.52;38.54;94379.94;5015413;28;1353;-72
2023/03/10 01:27:28;;;;;;;;;;;;;;;23.52;39.21;94376.47;5010492;28;1334;-70
2023/03/10 01:29:54;;;;;;;;;;;;;;;23.52;39.27;94379.13;5008531;28;1900;-70
2023/03/10 01:32:19;;;;;;;;;;;;;;;23.53;39.50;94381.56;5003366;28;1361;-71
2023/03/10 01:34:44;;;;;;;;;;;;;;;23.51;39.42;94383.69;5017788;28;1393;-70
2023/03/10 01:37:10;;;;;;;;;;;;;;;23.54;39.31;94377.84;5003270;28;1244;-70
2023/03/10 01:39:36;;;;;;;;;;;;;;;23.52;39.02;94379.94;5012103;28;1420;-70
2023/03/10 01:42:01;;;;;;;;;;;;;;;23.53;38.87;94370.84;5000499;28;1537;-71
2023/03/10 01:44:26;;;;;;;;;;;;;;;23.50;39.18;94376.69;5001167;28;1416;-71
2023/03/10 01:46:53;;;;;;;;;;;;;;;23.52;38.99;94381.81;5021103;28;1389;-71
2023/03/10 01:49:22;;;;;;;;;;;;;;;23.52;39.27;94384.50;5019718;28;1964;-72
2023/03/10 01:51:50;;;;;;;;;;;;;;;23.51;39.00;94380.19;4995687;28;1398;-72
2023/03/10 01:54:17;;;;;;;;;;;;;;;23.51;39.26;94383.69;5012597;28;1389;-72
2023/03/10 01:56:43;;;;;;;;;;;;;;;24.44;39.09;94392.28;5025659;28;1380;-68
2023/03/10 01:59:09;;;;;;;;;;;;;;;24.68;37.99;94389.44;5028457;28;1334;-66
2023/03/10 02:01:35;;;;;;;;;;;;;;;24.45;38.47;94393.13;4996612;28;1640;-67
2023/03/10 02:04:03;;;;;;;;;;;;;;;24.48;38.52;94397.16;5006843;28;1792;-67
2023/03/10 02:06:29;;;;;;;;;;;;;;;24.55;38.05;94390.56;4999435;28;1318;-67
2023/03/10 02:09:00;;;;;;;;;;;;;;;24.60;38.22;94398.69;5002955;28;1914;-67
2023/03/10 02:11:25;;;;;;;;;;;;;;;24.68;38.12;94398.28;5013719;28;1412;-67
2023/03/10 02:13:50;;;;;;;;;;;;;;;24.68;38.21;94402.84;5013198;28;1398;-67
2023/03/10 02:16:16;;;;;;;;;;;;;;;24.67;37.83;94398.50;5007724;28;1326;-67
2023/03/10 02:18:43;;;;;;;;;;;;;;;24.74;38.16;94396.50;5031357;28;1190;-67
2023/03/10 02:21:26;;;;;;;;;;;;;;;24.72;38.02;94395.91;5019520;28;1271;-68
2023/03/10 02:23:52;;;;;;;;;;;;;;;24.76;37.98;94388.19;5024097;28;1389;-68
2023/03/10 02:26:32;;;;;;;;;;;;;;;24.73;38.14;94396.72;5018706;28;1365;-68
2023/03/10 02:28:59;;;;;;;;;;;;;;;24.79;37.78;94390.38;5003010;28;1898;-66
2023/03/10 02:31:25;;;;;;;;;;;;;;;24.48;37.33;94394.47;4995317;28;1394;-64
2023/03/10 02:33:50;;;;;;;;;;;;;;;24.22;37.84;94394.06;5026229;28;1481;-64
2023/03/10 02:36:20;;;;;;;;;;;;;;;24.11;37.83;94400.31;5023078;28;1357;-64
2023/03/10 02:38:45;;;;;;;;;;;;;;;23.99;38.08;94385.13;5007967;28;1342;-63
2023/03/10 02:41:22;;;;;;;;;;;;;;;23.95;38.19;94394.66;5009758;28;1275;-64
2023/03/10 02:43:48;;;;;;;;;;;;;;;23.87;38.51;94386.22;4991139;28;1342;-63
2023/03/10 02:46:13;;;;;;;;;;;;;;;23.84;38.50;94389.38;5020892;28;1415;-65
2023/03/10 02:48:40;;;;;;;;;;;;;;;23.84;38.46;94382.16;5021481;28;1902;-65
2023/03/10 02:51:08;;;;;;;;;;;;;;;23.86;38.58;94387.28;4999895;28;1255;-66
2023/03/10 02:53:33;;;;;;;;;;;;;;;23.85;38.54;94383.78;5005445;28;1381;-66
2023/03/10 02:55:59;;;;;;;;;;;;;;;23.82;38.56;94392.28;5029408;28;1506;-65
2023/03/10 02:58:25;;;;;;;;;;;;;;;23.79;38.47;94380.22;5018175;28;1364;-66
2023/03/10 03:00:51;;;;;;;;;;;;;;;23.76;38.87;94379.84;5029288;28;1661;-65
2023/03/10 03:03:17;;;;;;;;;;;;;;;23.67;39.17;94384.75;5010887;28;1275;-67
2023/03/10 03:05:42;;;;;;;;;;;;;;;23.73;38.73;94380.34;4999873;28;1367;-66
2023/03/10 03:08:08;;;;;;;;;;;;;;;23.74;38.82;94379.31;5016403;28;1393;-66
2023/03/10 03:10:34;;;;;;;;;;;;;;;23.72;38.92;94387.56;5016228;28;1906;-66
2023/03/10 03:12:59;;;;;;;;;;;;;;;23.71;38.78;94380.59;5017529;28;1206;-66
2023/03/10 03:15:26;;;;;;;;;;;;;;;23.69;38.94;94387.22;5013316;28;1112;-66
2023/03/10 03:17:53;;;;;;;;;;;;;;;23.70;38.81;94383.47;4999700;28;1397;-66
2023/03/10 03:20:20;;;;;;;;;;;;;;;23.69;38.93;94374.63;5015450;28;1377;-66
2023/03/10 03:22:46;;;;;;;;;;;;;;;23.67;38.80;94381.28;5032268;28;1390;-67
2023/03/10 03:25:12;;;;;;;;;;;;;;;23.66;38.99;94382.34;5024432;28;1321;-66
2023/03/10 03:27:38;;;;;;;;;;;;;;;23.64;39.01;94381.75;5016053;28;1311;-67
2023/03/10 03:30:05;;;;;;;;;;;;;;;23.65;39.05;94372.66;5015824;28;1902;-67
2023/03/10 03:32:30;;;;;;;;;;;;;;;23.63;38.87;94380.16;5021593;28;1389;-67
2023/03/10 03:34:55;;;;;;;;;;;;;;;23.64;39.06;94376.41;5004011;28;1329;-66
2023/03/10 03:37:21;;;;;;;;;;;;;;;23.64;39.24;94371.84;5005784;28;1342;-66
2023/03/10 03:39:46;;;;;;;;;;;;;;;23.64;39.13;94366.50;5015819;28;822;-65
2023/03/10 03:42:11;;;;;;;;;;;;;;;23.64;39.24;94377.22;5016841;28;1346;-66
2023/03/10 03:44:37;;;;;;;;;;;;;;;23.64;39.18;94374.53;5015749;28;858;-67
2023/03/10 03:47:02;;;;;;;;;;;;;;;23.68;39.09;94375.69;5009538;28;1362;-67
2023/03/10 03:49:27;;;;;;;;;;;;;;;23.70;39.38;94380.78;5013017;28;1961;-66
2023/03/10 03:51:53;;;;;;;;;;;;;;;23.58;39.97;94376.31;5032753;28;1374;-67
2023/03/10 03:54:18;;;;;;;;;;;;;;;23.62;40.04;94381.19;4996097;28;1341;-67
2023/03/10 03:56:43;;;;;;;;;;;;;;;23.61;40.19;94376.88;5020031;28;1421;-67
2023/03/10 03:59:09;;;;;;;;;;;;;;;23.58;40.17;94368.28;5007079;28;1346;-67
2023/03/10 04:01:34;;;;;;;;;;;;;;;23.62;40.17;94373.16;5023400;28;1429;-65
2023/03/10 04:03:59;;;;;;;;;;;;;;;23.57;36.78;94381.91;4999027;28;1370;-66
2023/03/10 04:06:25;;;;;;;;;;;;;;;22.76;35.81;94375.69;5016209;28;1346;-66
2023/03/10 04:08:50;;;;;;;;;;;;;;;22.62;34.89;94372.44;5033392;28;1969;-65
2023/03/10 04:11:15;;;;;;;;;;;;;;;22.52;34.08;94375.72;5024669;28;1306;-66
2023/03/10 04:13:42;;;;;;;;;;;;;;;22.47;33.27;94378.25;5032465;28;1193;-65
2023/03/10 04:16:08;;;;;;;;;;;;;;;21.97;32.31;94378.63;5023214;28;1345;-66
2023/03/10 04:18:33;;;;;;;;;;;;;;;21.72;32.60;94374.31;5002889;28;1382;-67
2023/03/10 04:20:58;;;;;;;;;;;;;;;21.66;32.24;94375.22;5029437;28;1400;-66
2023/03/10 04:23:23;;;;;;;;;;;;;;;21.36;32.44;94377.03;5007403;28;1278;-66
2023/03/10 04:25:49;;;;;;;;;;;;;;;21.21;32.65;94367.59;5020449;28;1362;-68
2023/03/10 04:28:14;;;;;;;;;;;;;;;21.24;32.32;94364.47;5023293;28;1421;-67
2023/03/10 04:30:43;;;;;;;;;;;;;;;21.19;32.06;94366.19;5027154;28;1906;-67
2023/03/10 04:33:10;;;;;;;;;;;;;;;21.06;32.03;94377.81;5009626;28;1342;-67
2023/03/10 04:35:38;;;;;;;;;;;;;;;20.96;31.94;94370.34;5016231;28;1335;-67
2023/03/10 04:38:03;;;;;;;;;;;;;;;20.83;32.21;94366.00;5026305;28;1333;-67
2023/03/10 04:40:29;;;;;;;;;;;;;;;20.79;32.34;94351.47;5007570;28;1553;-67
2023/03/10 04:42:54;;;;;;;;;;;;;;;20.62;32.46;94361.09;5005417;28;1357;-67
2023/03/10 04:45:19;;;;;;;;;;;;;;;20.37;33.39;94353.91;4992405;28;1429;-66
2023/03/10 04:47:44;;;;;;;;;;;;;;;20.58;34.11;94354.59;5031198;28;1358;-67
2023/03/10 04:50:10;;;;;;;;;;;;;;;20.88;33.36;94355.44;5030698;28;1902;-66
2023/03/10 04:52:35;;;;;;;;;;;;;;;20.89;33.09;94346.44;5029087;28;1338;-66
2023/03/10 04:55:00;;;;;;;;;;;;;;;20.56;33.36;94346.00;5009391;28;1058;-65
2023/03/10 04:57:26;;;;;;;;;;;;;;;20.53;33.64;94351.75;5009759;28;1239;-66
2023/03/10 04:59:51;;;;;;;;;;;;;;;20.51;33.62;94346.63;5016597;28;1290;-66
2023/03/10 05:02:16;;;;;;;;;;;;;;;20.59;33.05;94354.34;5016372;28;1421;-68
2023/03/10 05:04:42;;;;;;;;;;;;;;;20.43;33.28;94353.06;5021871;28;1277;-65
2023/03/10 05:07:07;;;;;;;;;;;;;;;20.32;33.70;94337.81;4986518;28;1299;-68
2023/03/10 05:09:36;;;;;;;;;;;;;;;20.24;33.75;94334.63;4999455;28;1914;-66
2023/03/10 05:12:02;;;;;;;;;;;;;;;20.06;33.61;94335.38;5027301;28;1394;-67
2023/03/10 05:14:27;;;;;;;;;;;;;;;20.38;34.05;94328.94;5004135;28;1337;-66
2023/03/10 05:16:53;;;;;;;;;;;;;;;20.83;34.19;94320.69;5017312;28;1370;-66
2023/03/10 05:19:18;;;;;;;;;;;;;;;21.17;34.26;94314.91;5003944;28;1128;-65
2023/03/10 05:21:43;;;;;;;;;;;;;;;21.41;33.95;94326.53;5014092;28;834;-65
2023/03/10 05:24:08;;;;;;;;;;;;;;;21.54;33.80;94320.97;5013673;28;945;-65
2023/03/10 05:26:34;;;;;;;;;;;;;;;21.66;33.58;94326.34;5013783;28;811;-66
2023/03/10 05:28:59;;;;;;;;;;;;;;;21.72;33.70;94317.44;5008790;28;1949;-65
2023/03/10 05:31:25;;;;;;;;;;;;;;;21.77;33.74;94310.38;4996990;28;1127;-67
2023/03/10 05:33:51;;;;;;;;;;;;;;;21.83;33.67;94305.97;4994092;28;854;-66
2023/03/10 05:36:16;;;;;;;;;;;;;;;21.87;33.70;94309.78;4991969;28;1428;-65
2023/03/10 05:38:41;;;;;;;;;;;;;;;21.90;33.75;94312.00;4993929;28;867;-65
2023/03/10 05:41:08;;;;;;;;;;;;;;;21.95;33.76;94308.66;4984193;28;1087;-65
2023/03/10 05:43:34;;;;;;;;;;;;;;;21.99;33.91;94307.13;4994212;28;902;-66
2023/03/10 05:45:59;;;;;;;;;;;;;;;22.02;33.71;94307.47;4993837;28;879;-66
2023/03/10 05:48:25;;;;;;;;;;;;;;;22.05;33.67;94303.53;4994284;28;898;-66
2023/03/10 05:51:06;;;;;;;;;;;;;;;22.08;33.50;94307.59;4993691;28;1911;-66
2023/03/10 05:53:33;;;;;;;;;;;;;;;22.10;33.61;94309.00;4983777;28;1133;-66
2023/03/10 05:55:59;;;;;;;;;;;;;;;22.13;33.55;94305.84;4993694;28;898;-66
2023/03/10 05:58:25;;;;;;;;;;;;;;;22.17;33.69;94300.84;4992343;28;1569;-66
2023/03/10 06:00:50;;;;;;;;;;;;;;;22.20;33.46;94293.25;4993683;28;1286;-65
2023/03/10 06:03:16;;;;;;;;;;;;;;;22.23;33.56;94298.13;4988903;28;1175;-65
2023/03/10 06:05:42;;;;;;;;;;;;;;;22.27;33.39;94292.28;4986704;28;1327;-65
2023/03/10 06:08:07;;;;;;;;;;;;;;;22.29;33.40;94293.69;4992328;28;1082;-66
2023/03/10 06:10:32;;;;;;;;;;;;;;;22.32;33.41;94300.44;4992229;28;1914;-67
2023/03/10 06:12:58;;;;;;;;;;;;;;;22.34;33.51;94299.16;4993603;28;875;-66
2023/03/10 06:15:23;;;;;;;;;;;;;;;22.36;33.50;94302.38;4982978;28;1020;-66
2023/03/10 06:17:48;;;;;;;;;;;;;;;22.38;33.41;94311.00;4991899;28;1332;-66
2023/03/10 06:20:14;;;;;;;;;;;;;;;22.41;33.48;94313.19;4993540;28;807;-65
2023/03/10 06:22:40;;;;;;;;;;;;;;;22.44;33.42;94309.25;4993819;28;799;-66
2023/03/10 06:25:05;;;;;;;;;;;;;;;22.44;33.49;94298.56;4976113;28;1440;-66
2023/03/10 06:27:30;;;;;;;;;;;;;;;22.45;33.37;94300.16;4982055;28;1416;-66
2023/03/10 06:29:56;;;;;;;;;;;;;;;22.47;33.34;94303.44;4993364;28;1914;-66
2023/03/10 06:32:21;;;;;;;;;;;;;;;22.50;33.22;94296.81;4993371;28;799;-66
2023/03/10 06:34:47;;;;;;;;;;;;;;;22.52;33.28;94294.72;4993411;28;795;-66
2023/03/10 06:37:12;;;;;;;;;;;;;;;22.53;33.37;94301.69;4988511;28;1240;-65
2023/03/10 06:39:38;;;;;;;;;;;;;;;22.54;33.34;94304.13;4988317;28;1147;-65
2023/03/10 06:42:04;;;;;;;;;;;;;;;22.54;33.16;94298.78;4993630;28;810;-66
2023/03/10 06:44:29;;;;;;;;;;;;;;;22.54;33.34;94296.13;4993264;28;878;-66
2023/03/10 06:46:54;;;;;;;;;;;;;;;;;;4993283;28;919;-67
2023/03/10 06:49:20;;;;;;;;;;;;;;;22.59;33.22;94308.75;4983337;28;1906;-67
2023/03/10 06:51:45;;;;;;;;;;;;;;;22.59;33.18;94300.75;4993187;28;965;-66
2023/03/10 06:54:10;;;;;;;;;;;;;;;22.60;33.29;94305.06;4991892;28;1316;-66
2023/03/10 06:56:36;;;;;;;;;;;;;;;22.59;33.22;94301.53;4993329;28;801;-65
2023/03/10 06:59:01;;;;;;;;;;;;;;;22.60;33.29;94311.22;4991831;28;1285;-65
2023/03/10 07:01:28;;;;;;;;;;;;;;;22.62;33.22;94305.59;4983063;28;1217;-66
2023/03/10 07:03:54;;;;;;;;;;;;;;;22.61;33.31;94304.00;4993118;28;831;-65
2023/03/10 07:06:19;;;;;;;;;;;;;;;22.62;33.29;94309.09;4993101;28;861;-65
2023/03/10 07:08:45;;;;;;;;;;;;;;;22.62;33.32;94316.31;4993094;28;877;-66
2023/03/10 07:11:10;;;;;;;;;;;;;;;22.64;33.26;94320.38;4988202;28;1969;-66
2023/03/10 07:13:37;;;;;;;;;;;;;;;22.64;33.25;94314.22;4986309;28;1365;-66
2023/03/10 07:16:02;;;;;;;;;;;;;;;22.64;33.24;94304.31;4992990;28;862;-66
2023/03/10 07:18:28;;;;;;;;;;;;;;;22.65;33.04;94299.78;4992988;28;938;-66
2023/03/10 07:20:54;;;;;;;;;;;;;;;22.66;33.15;94291.53;4991708;28;1201;-65
2023/03/10 07:23:19;;;;;;;;;;;;;;;22.66;33.25;94286.19;4983189;28;1114;-65
2023/03/10 07:25:44;;;;;;;;;;;;;;;22.66;33.22;94278.19;4992702;28;1117;-65
2023/03/10 07:28:10;;;;;;;;;;;;;;;22.66;33.19;94283.53;4994444;28;951;-65
2023/03/10 07:30:37;;;;;;;;;;;;;;;22.68;33.23;94285.94;4996393;28;1903;-65
2023/03/10 07:33:02;;;;;;;;;;;;;;;22.67;33.31;94276.31;4996594;28;867;-64
2023/03/10 07:35:28;;;;;;;;;;;;;;;22.67;33.16;94282.47;4986365;28;1101;-66
2023/03/10 07:37:53;;;;;;;;;;;;;;;22.69;33.09;94287.59;4996209;28;990;-65
2023/03/10 07:40:23;;;;;;;;;;;;;;;22.69;33.13;94290.25;4996191;28;819;-65
2023/03/10 07:42:49;;;;;;;;;;;;;;;22.71;33.24;94282.00;4996168;28;917;-65
2023/03/10 07:45:14;;;;;;;;;;;;;;;22.71;33.23;94274.78;4991334;28;1184;-65
2023/03/10 07:47:39;;;;;;;;;;;;;;;22.72;33.28;94283.63;4990973;28;1253;-66
2023/03/10 07:50:05;;;;;;;;;;;;;;;22.73;33.16;94271.88;4996095;28;1903;-66
2023/03/10 07:52:30;;;;;;;;;;;;;;;22.74;33.03;94268.16;4996286;28;867;-66
2023/03/10 07:54:55;;;;;;;;;;;;;;;22.76;33.12;94260.72;4996215;28;914;-66
2023/03/10 07:57:21;;;;;;;;;;;;;;;22.78;33.05;94255.94;4986105;28;1151;-66
2023/03/10 07:59:46;;;;;;;;;;;;;;;22.80;32.93;94245.84;4995711;28;1406;-66
2023/03/10 08:02:13;;;;;;;;;;;;;;;22.83;33.07;94250.69;4995680;28;1372;-66
2023/03/10 08:04:38;;;;;;;;;;;;;;;22.84;33.02;94246.97;4995732;28;803;-67
2023/03/10 08:07:04;;;;;;;;;;;;;;;22.82;33.05;94241.84;4995695;28;902;-66
2023/03/10 08:09:29;;;;;;;;;;;;;;;22.82;33.02;94243.72;4984382;28;1954;-66
2023/03/10 08:11:57;;;;;;;;;;;;;;;22.82;33.03;94233.81;4995602;28;981;-66
2023/03/10 08:14:22;;;;;;;;;;;;;;;22.83;32.95;94231.97;4995548;28;857;-67
2023/03/10 08:16:48;;;;;;;;;;;;;;;22.84;32.82;94222.91;4995482;28;882;-66
2023/03/10 08:19:14;;;;;;;;;;;;;;;22.88;32.89;94218.69;4990770;28;1059;-65
2023/03/10 08:21:39;;;;;;;;;;;;;;;22.88;32.76;94216.00;4990220;28;1127;-66
2023/03/10 08:24:04;;;;;;;;;;;;;;;22.87;33.04;94207.19;4993815;28;1360;-66
2023/03/10 08:26:30;;;;;;;;;;;;;;;22.87;33.01;94211.72;4995490;28;795;-66
2023/03/10 08:28:55;;;;;;;;;;;;;;;22.86;32.82;94202.91;4995368;28;1898;-66
2023/03/10 08:31:20;;;;;;;;;;;;;;;22.87;33.04;94199.16;4984180;28;1344;-65
2023/03/10 08:33:46;;;;;;;;;;;;;;;22.88;32.90;94190.09;4993679;28;1394;-66
2023/03/10 08:36:15;;;;;;;;;;;;;;;22.89;32.94;94182.88;4995491;28;812;-66
2023/03/10 08:38:41;;;;;;;;;;;;;;;22.88;32.86;94168.72;4993350;28;1496;-66
2023/03/10 08:41:15;;;;;;;;;;;;;;;22.90;33.01;94171.94;4993747;28;1411;-66
2023/03/10 08:43:41;;;;;;;;;;;;;;;22.94;32.71;94169.63;4985108;28;1152;-66
2023/03/10 08:46:06;;;;;;;;;;;;;;;22.95;32.81;94159.72;4995019;28;896;-66
2023/03/10 08:48:32;;;;;;;;;;;;;;;22.95;32.64;94165.91;4994906;28;957;-66
2023/03/10 08:50:57;;;;;;;;;;;;;;;22.96;32.80;94167.53;4993551;28;1914;-66
2023/03/10 08:53:23;;;;;;;;;;;;;;;23.00;32.78;94166.00;4988132;28;1360;-65
2023/03/10 08:55:48;;;;;;;;;;;;;;;23.01;32.74;94158.78;4988067;28;1243;-65
2023/03/10 08:58:13;;;;;;;;;;;;;;;23.02;32.62;94152.38;4994796;28;858;-66
2023/03/10 09:00:38;;;;;;;;;;;;;;;23.03;32.72;94152.13;4994952;28;1285;-65
2023/03/10 09:03:04;;;;;;;;;;;;;;;23.03;32.61;94141.44;4994673;28;930;-66
2023/03/10 09:05:29;;;;;;;;;;;;;;;23.04;32.76;94145.72;4985020;28;1089;-65
2023/03/10 09:07:54;;;;;;;;;;;;;;;23.05;32.55;94136.66;4994577;28;1131;-66
2023/03/10 09:10:20;;;;;;;;;;;;;;;23.06;32.65;94132.94;4994789;28;1981;-66
2023/03/10 09:12:45;;;;;;;;;;;;;;;23.05;32.66;94128.66;4994448;28;890;-65
2023/03/10 09:15:11;;;;;;;;;;;;;;;23.06;32.77;94118.75;4994535;28;844;-66
2023/03/10 09:17:36;;;;;;;;;;;;;;;23.07;32.48;94125.72;4984452;28;1045;-65
2023/03/10 09:20:05;;;;;;;;;;;;;;;23.07;32.62;94137.22;4994337;28;909;-65
2023/03/10 09:22:30;;;;;;;;;;;;;;;23.06;32.50;94129.44;4993043;28;1310;-65
2023/03/10 09:24:56;;;;;;;;;;;;;;;23.06;32.79;94122.22;4994558;28;926;-65
2023/03/10 09:27:21;;;;;;;;;;;;;;;23.08;32.71;94116.63;4989528;28;1074;-65
2023/03/10 09:29:46;;;;;;;;;;;;;;;23.06;32.68;94113.41;4988642;28;1967;-66
2023/03/10 09:32:12;;;;;;;;;;;;;;;23.07;32.54;94112.34;4994079;28;950;-66
2023/03/10 09:34:37;;;;;;;;;;;;;;;23.06;32.75;94102.69;4994500;28;811;-65
2023/03/10 09:37:03;;;;;;;;;;;;;;;23.06;32.62;94106.19;4992748;28;1213;-65
2023/03/10 09:39:29;;;;;;;;;;;;;;;23.06;32.71;94113.41;4984419;28;1091;-66
2023/03/10 09:42:06;;;;;;;;;;;;;;;23.06;32.72;94105.38;4993765;28;1016;-66
2023/03/10 09:44:36;;;;;;;;;;;;;;;23.06;32.66;94103.50;4992719;28;1240;-65
2023/03/10 09:47:11;;;;;;;;;;;;;;;23.05;32.59;94099.22;4993957;28;865;-65
2023/03/10 09:49:38;;;;;;;;;;;;;;;23.04;32.65;94100.25;4993507;28;1969;-65
2023/03/10 09:52:23;;;;;;;;;;;;;;;23.05;32.69;94098.38;4983454;28;1180;-65
2023/03/10 09:54:58;;;;;;;;;;;;;;;23.05;32.43;94093.88;4975960;28;1381;-65
2023/03/10 09:57:23;;;;;;;;;;;;;;;23.04;32.70;94094.09;4992575;28;1628;-66
2023/03/10 09:59:50;;;;;;;;;;;;;;;23.03;32.47;94090.63;4993732;28;954;-66
2023/03/10 10:02:21;;;;;;;;;;;;;;;23.05;32.53;94082.34;4983886;28;1209;-66
2023/03/10 10:04:52;;;;;;;;;;;;;;;23.04;32.62;94086.06;4993484;28;1134;-66
2023/03/10 10:07:19;;;;;;;;;;;;;;;23.05;32.55;94075.16;4992401;28;1394;-65
2023/03/10 10:09:45;;;;;;;;;;;;;;;23.06;32.58;94065.25;4992210;28;1910;-65
2023/03/10 10:12:16;;;;;;;;;;;;;;;23.08;32.60;94055.09;4993600;28;873;-65
2023/03/10 10:14:44;;;;;;;;;;;;;;;23.07;32.62;94050.81;4983738;28;1131;-65
2023/03/10 10:17:12;;;;;;;;;;;;;;;23.06;32.58;94054.56;4993478;28;864;-65
2023/03/10 10:19:39;;;;;;;;;;;;;;;23.07;32.34;94050.81;4993559;28;895;-66
2023/03/10 10:22:19;;;;;;;;;;;;;;;23.06;32.43;94050.00;4994031;28;859;-65
2023/03/10 10:24:58;;;;;;;;;;;;;;;23.06;32.46;94054.56;4985052;28;1036;-65
2023/03/10 10:27:23;;;;;;;;;;;;;;;23.06;32.62;94054.56;4993508;28;1132;-65
2023/03/10 10:29:49;;;;;;;;;;;;;;;23.06;32.66;94050.00;4993620;28;1964;-65
2023/03/10 10:32:15;;;;;;;;;;;;;;;23.05;32.56;94043.03;4992125;28;1366;-66
2023/03/10 10:34:42;;;;;;;;;;;;;;;23.05;32.70;94047.56;4993457;28;950;-65
2023/03/10 10:37:25;;;;;;;;;;;;;;;23.04;32.50;94046.75;4983565;28;1039;-65
2023/03/10 10:39:52;;;;;;;;;;;;;;;23.04;32.42;94036.06;4993396;28;965;-66
2023/03/10 10:42:24;;;;;;;;;;;;;;;23.03;32.84;94047.81;4993317;28;973;-65
2023/03/10 10:44:54;;;;;;;;;;;;;;;23.03;32.68;94049.69;4993591;28;815;-64
2023/03/10 10:47:30;;;;;;;;;;;;;;;23.01;32.57;94057.94;4987991;28;1075;-65
2023/03/10 10:50:16;;;;;;;;;;;;;;;23.01;32.73;94063.28;4991642;28;2049;-65
2023/03/10 10:52:41;;;;;;;;;;;;;;;23.01;32.79;94049.13;4992878;28;1106;-65
2023/03/10 10:55:20;;;;;;;;;;;;;;;23.00;32.79;94048.31;4993318;28;901;-65
2023/03/10 10:57:52;;;;;;;;;;;;;;;23.00;32.74;94047.50;4991980;28;1535;-65
2023/03/10 11:00:26;;;;;;;;;;;;;;;23.00;32.82;94047.50;4983345;28;1090;-66
2023/03/10 11:02:52;;;;;;;;;;;;;;;22.99;32.66;94045.88;4995815;28;1254;-66
2023/03/10 11:05:19;;;;;;;;;;;;;;;23.00;32.76;94050.19;4996933;28;962;-66
2023/03/10 11:07:45;;;;;;;;;;;;;;;22.99;32.73;94049.34;4996866;28;895;-66
2023/03/10 11:10:14;;;;;;;;;;;;;;;22.99;32.79;94033.28;4988263;28;1914;-66
2023/03/10 11:12:50;;;;;;;;;;;;;;;22.98;32.61;94042.38;4996706;28;1143;-66
2023/03/10 11:15:24;;;;;;;;;;;;;;;22.99;32.64;94033.28;4995394;28;1190;-66
2023/03/10 11:18:13;;;;;;;;;;;;;;;22.96;32.79;94012.38;4996705;28;827;-66
2023/03/10 11:20:41;;;;;;;;;;;;;;;22.98;32.57;94004.13;4991074;28;1215;-66
2023/03/10 11:23:12;;;;;;;;;;;;;;;22.97;32.90;93995.31;4986617;28;1055;-66
2023/03/10 11:25:43;;;;;;;;;;;;;;;22.97;32.66;93981.09;4996644;28;878;-66
2023/03/10 11:28:27;;;;;;;;;;;;;;;22.96;32.86;93969.59;4995241;28;1320;-66
2023/03/10 11:31:10;;;;;;;;;;;;;;;22.96;32.80;93974.94;4996352;28;1906;-66
2023/03/10 11:33:56;;;;;;;;;;;;;;;22.96;32.74;93972.28;4986361;28;1121;-65
2023/03/10 11:36:40;;;;;;;;;;;;;;;22.96;32.68;93958.09;4989070;28;1201;-66
2023/03/10 11:39:24;;;;;;;;;;;;;;;22.96;32.73;93958.09;4996277;28;914;-65
2023/03/10 11:41:54;;;;;;;;;;;;;;;22.95;32.68;93951.09;4996163;28;973;-66
2023/03/10 11:44:36;;;;;;;;;;;;;;;22.95;32.67;93961.81;4986467;28;1084;-65
2023/03/10 11:47:06;;;;;;;;;;;;;;;22.96;32.78;93971.47;4996118;28;894;-65
2023/03/10 11:49:39;;;;;;;;;;;;;;;22.94;32.79;93961.00;4996268;28;1956;-65
2023/03/10 11:52:09;;;;;;;;;;;;;;;22.95;32.83;93959.13;4995034;28;1352;-66
2023/03/10 11:54:45;;;;;;;;;;;;;;;22.95;32.71;93943.09;4995935;28;906;-66
2023/03/10 11:57:33;;;;;;;;;;;;;;;22.94;32.65;93944.13;4986076;28;1053;-64
2023/03/10 12:00:00;;;;;;;;;;;;;;;22.95;32.60;93941.25;4995903;28;807;-65
2023/03/10 12:02:33;;;;;;;;;;;;;;;22.95;32.52;93935.91;4995498;28;1385;-65
2023/03/10 12:05:05;;;;;;;;;;;;;;;22.94;32.70;93938.78;4996029;28;877;-65
2023/03/10 12:07:36;;;;;;;;;;;;;;;22.93;32.61;93915.78;4985775;28;1180;-64
2023/03/10 12:10:11;;;;;;;;;;;;;;;22.93;32.71;93921.94;4994301;28;1918;-65
2023/03/10 12:12:38;;;;;;;;;;;;;;;22.93;32.64;93910.41;4994132;28;1316;-65
2023/03/10 12:15:09;;;;;;;;;;;;;;;22.91;32.60;93897.31;4994748;28;899;-64
2023/03/10 12:17:36;;;;;;;;;;;;;;;22.93;32.70;93897.84;4992214;28;1335;-65
2023/03/10 12:20:14;;;;;;;;;;;;;;;22.93;32.70;93894.38;4988777;28;1150;-66
2023/03/10 12:22:39;;;;;;;;;;;;;;;22.92;32.73;93898.91;4994247;28;1209;-65
2023/03/10 12:25:24;;;;;;;;;;;;;;;22.92;32.54;93882.88;4994131;28;1392;-65
2023/03/10 12:28:07;;;;;;;;;;;;;;;22.90;32.84;93880.44;4995651;28;894;-65
2023/03/10 12:30:44;;;;;;;;;;;;;;;22.91;32.69;93873.25;4985271;28;1915;-64
2023/03/10 12:33:28;;;;;;;;;;;;;;;22.90;32.66;93863.59;4994064;28;1339;-65
2023/03/10 12:35:54;;;;;;;;;;;;;;;22.90;32.52;93855.56;4995173;28;930;-65
2023/03/10 12:38:38;;;;;;;;;;;;;;;22.91;32.73;93859.88;4993040;28;1222;-66
2023/03/10 12:41:04;;;;;;;;;;;;;;;22.80;32.68;93847.44;4986079;28;1277;-66
2023/03/10 12:43:42;;;;;;;;;;;;;;;22.89;32.75;93861.97;4991540;28;1272;-66
2023/03/10 12:46:10;;;;;;;;;;;;;;;22.89;32.80;93856.63;4992890;28;1325;-66
2023/03/10 12:48:38;;;;;;;;;;;;;;;22.89;32.77;93861.97;4995078;28;965;-65
2023/03/10 12:51:09;;;;;;;;;;;;;;;22.89;32.68;93856.63;4993580;28;1914;-65
2023/03/10 12:53:44;;;;;;;;;;;;;;;22.89;32.61;93843.25;4983710;28;1235;-66
2023/03/10 12:56:12;;;;;;;;;;;;;;;22.91;32.77;93843.84;4993629;28;1260;-65
2023/03/10 12:58:39;;;;;;;;;;;;;;;22.90;32.69;93837.66;4993558;28;1462;-65
2023/03/10 13:01:06;;;;;;;;;;;;;;;22.91;32.69;93841.16;4994612;28;1443;-66
2023/03/10 13:03:31;;;;;;;;;;;;;;;22.91;32.80;93849.19;4989775;28;1096;-65